EGVO

RAF Odiham Airport

Odiham, United Kingdom
METAR EGVO 231250Z 21010KT CAVOK 28/13 Q1016 BLU NOSIG
Observed Flight Rules
Jul-23 @ 12:50 UTC (11 minutes ago) Visual Flight Rules
Wind Visibility Clouds
210° at 10 knots 10,000+ meters
  • Clear skies
Temperatures Readings
Current 28°C / 82°F
Dewpoint 13°C / 55°F
Humidity 40%
Altimeter 30" Hg
Pressure 1016 hPa
Elevation 123
METAR EGVO 231250Z 21010KT CAVOK 28/13 Q1016 BLU NOSIG
Observed Flight Rules
Jul-23 @ 12:50 UTC
(11 minutes ago)
VFR
Wind Visibility
210° at 10 knots 10,000+ meters
Clouds
  • Clear skies
Temperature Dewpoint
28°C / 82°F 13°C / 55°F
Humidity Altimeter Pressure
40% 30" Hg 1016 hPa